Time;durP1;ratioP1;P1;durP2;ratioP2;P2;SDS_P1;SDS_P2;PMS_P1;PMS_P2;Temp;Humidity;BMP_temperature;BMP_pressure;BME280_temperature;BME280_humidity;BME280_pressure;Samples;Min_cycle;Max_cycle;Signal;HPM_P1;HPM_P2
2023/12/14 00:01:46;;;;;;;7.03;3.60;;;;;;;2.12;77.48;100245.81;5042464;28;20057;-44
2023/12/14 00:04:13;;;;;;;12.65;4.78;;;;;;;2.10;78.34;100242.34;5038557;28;20155;-54
2023/12/14 00:06:40;;;;;;;6.40;4.18;;;;;;;2.08;77.49;100252.50;5041869;28;20048;-52
2023/12/14 00:09:08;;;;;;;4.50;3.92;;;;;;;2.04;76.83;100256.66;5042920;28;20048;-46
2023/12/14 00:11:39;;;;;;;7.68;3.78;;;;;;;2.02;77.37;100263.38;5045113;28;20486;-46
2023/12/14 00:14:06;;;;;;;11.82;3.67;;;;;;;1.98;76.84;100261.53;5023968;28;20111;-42
2023/12/14 00:16:33;;;;;;;3.45;2.92;;;;;;;1.96;76.84;100260.59;5047001;28;20156;-46
2023/12/14 00:19:00;;;;;;;5.07;3.28;;;;;;;1.94;77.58;100259.69;5047040;28;20057;-46
2023/12/14 00:21:27;;;;;;;6.00;3.25;;;;;;;1.92;77.91;100266.41;5049174;28;20051;-44
2023/12/14 00:23:53;;;;;;;7.47;3.92;;;;;;;1.89;78.00;100256.13;5048469;28;20052;-49
2023/12/14 00:26:20;;;;;;;6.20;4.07;;;;;;;1.88;77.82;100260.34;5045318;28;20056;-49
2023/12/14 00:28:47;;;;;;;8.27;2.30;;;;;;;1.86;78.08;100266.22;5044555;28;20476;-48
2023/12/14 00:31:13;;;;;;;6.75;3.90;;;;;;;1.83;77.58;100261.00;5031286;28;20045;-47
2023/12/14 00:33:40;;;;;;;5.28;4.15;;;;;;;1.80;78.41;100262.59;5049225;28;20045;-49
2023/12/14 00:36:07;;;;;;;4.07;3.08;;;;;;;1.78;77.37;100259.13;5035862;28;20045;-45
2023/12/14 00:38:34;;;;;;;8.98;4.53;;;;;;;1.78;77.29;100260.81;5043264;28;20037;-51
2023/12/14 00:41:01;;;;;;;6.75;4.20;;;;;;;1.75;77.53;100253.91;5041324;28;20065;-46
2023/12/14 00:43:27;;;;;;;4.90;2.22;;;;;;;1.72;77.69;100253.78;5042357;28;20040;-46
2023/12/14 00:45:54;;;;;;;5.75;3.85;;;;;;;1.71;77.67;100252.06;5047497;28;20138;-42
2023/12/14 00:48:21;;;;;;;9.48;4.50;;;;;;;1.68;78.13;100262.16;5048378;28;20417;-47
2023/12/14 00:50:47;;;;;;;5.25;3.22;;;;;;;1.66;77.25;100259.53;5042511;28;20083;-45
2023/12/14 00:53:14;;;;;;;5.88;3.38;;;;;;;1.65;78.52;100252.69;5053058;28;20048;-46
2023/12/14 00:55:41;;;;;;;9.73;4.72;;;;;;;1.63;77.25;100261.13;5054013;28;20051;-48
2023/12/14 00:58:08;;;;;;;2.45;1.35;;;;;;;1.59;78.39;100261.81;5052198;28;20149;-47
2023/12/14 01:00:34;;;;;;;7.97;4.65;;;;;;;1.59;77.25;100261.81;5034494;28;20044;-49
2023/12/14 01:03:01;;;;;;;7.20;3.47;;;;;;;1.57;78.68;100268.53;5052316;28;20399;-46
2023/12/14 01:05:27;;;;;;;4.68;3.05;;;;;;;1.53;78.22;100270.97;5048789;28;20555;-52
2023/12/14 01:07:54;;;;;;;6.75;3.78;;;;;;;1.53;77.58;100262.47;5050738;28;20391;-44
2023/12/14 01:10:22;;;;;;;7.97;2.15;;;;;;;1.50;78.82;100263.22;5049949;28;20563;-48
2023/12/14 01:12:48;;;;;;;5.07;3.15;;;;;;;1.49;78.54;100264.00;5051352;28;20051;-47
2023/12/14 01:15:15;;;;;;;4.50;3.17;;;;;;;1.47;78.64;100267.34;5047342;28;20064;-49
2023/12/14 01:17:42;;;;;;;7.35;4.10;;;;;;;1.49;78.73;100275.94;5049767;28;20052;-45
2023/12/14 01:20:09;;;;;;;5.50;4.80;;;;;;;1.49;78.08;100281.03;5051620;28;20053;-44
2023/12/14 01:22:36;;;;;;;3.72;3.30;;;;;;;1.44;78.10;100278.31;5046916;28;20053;-42
2023/12/14 01:25:04;;;;;;;9.30;3.75;;;;;;;1.44;79.01;100278.31;5051248;28;20494;-47
2023/12/14 01:27:30;;;;;;;3.63;2.97;;;;;;;1.41;78.21;100283.28;5048635;28;20053;-46
2023/12/14 01:29:57;;;;;;;11.05;3.85;;;;;;;1.43;78.75;100280.78;5049887;28;20045;-45
2023/12/14 01:32:24;;;;;;;3.58;2.97;;;;;;;1.39;79.32;100284.91;5047268;28;20274;-50
2023/12/14 01:34:50;;;;;;;8.43;4.15;;;;;;;1.42;78.97;100290.16;5032929;28;20106;-47
2023/12/14 01:37:17;;;;;;;6.07;3.28;;;;;;;1.36;78.20;100300.13;5045969;28;20041;-46
2023/12/14 01:39:44;;;;;;;6.32;3.08;;;;;;;1.36;79.49;100300.13;5041683;28;20045;-49
2023/12/14 01:42:10;;;;;;;6.22;3.88;;;;;;;1.37;79.58;100299.28;5039107;28;20045;-46
2023/12/14 01:44:37;;;;;;;5.50;4.18;;;;;;;1.38;79.11;100298.47;5041082;28;20682;-51
2023/12/14 01:47:04;;;;;;;11.57;4.65;;;;;;;1.41;78.40;100311.34;5047069;28;20489;-52
2023/12/14 01:49:30;;;;;;;5.07;4.68;;;;;;;1.41;79.05;100303.69;5040331;28;20049;-50
2023/12/14 01:51:57;;;;;;;8.43;4.10;;;;;;;1.41;79.03;100301.16;5042465;28;20090;-44
2023/12/14 01:54:23;;;;;;;5.85;4.15;;;;;;;1.43;78.31;100302.09;5042292;28;20218;-49
2023/12/14 01:56:50;;;;;;;7.13;4.50;;;;;;;1.44;79.04;100308.94;5037627;28;20071;-52
2023/12/14 01:59:17;;;;;;;7.55;3.70;;;;;;;1.45;79.46;100308.13;5040994;28;20037;-47
2023/12/14 02:01:46;;;;;;;6.22;4.28;;;;;;;1.45;77.70;100315.78;5037549;28;20053;-50
2023/12/14 02:04:14;;;;;;;6.40;2.72;;;;;;;1.45;78.61;100308.13;5047577;28;20481;-47
2023/12/14 02:06:41;;;;;;;7.82;3.50;;;;;;;1.44;78.57;100311.47;5040802;28;20052;-46
2023/12/14 02:09:08;;;;;;;13.65;4.70;;;;;;;1.45;78.96;100317.47;5035817;28;20603;-47
2023/12/14 02:11:34;;;;;;;5.28;3.10;;;;;;;1.44;78.34;100319.16;5040819;28;20079;-48
2023/12/14 02:14:04;;;;;;;10.10;4.30;;;;;;;1.44;77.66;100314.03;5039059;28;20076;-44
2023/12/14 02:16:32;;;;;;;6.47;4.05;;;;;;;1.44;77.91;100298.72;5026354;28;20080;-48
2023/12/14 02:18:58;;;;;;;6.38;3.80;;;;;;;1.43;78.06;100291.88;5041351;28;20045;-48
2023/12/14 02:21:25;;;;;;;11.25;4.25;;;;;;;1.42;79.38;100300.38;5045709;28;20107;-46
2023/12/14 02:23:52;;;;;;;7.28;4.38;;;;;;;1.40;77.68;100304.53;5044957;28;20056;-46
2023/12/14 02:26:19;;;;;;;7.07;4.75;;;;;;;1.39;79.24;100313.00;5035935;28;20541;-41
2023/12/14 02:28:45;;;;;;;12.73;5.05;;;;;;;1.37;79.01;100306.94;5042530;28;20547;-53
2023/12/14 02:31:12;;;;;;;8.95;4.72;;;;;;;1.34;78.25;100300.03;5043348;28;20131;-48
2023/12/14 02:33:39;;;;;;;9.20;6.03;;;;;;;1.33;77.71;100300.00;5045358;28;20139;-47
2023/12/14 02:36:06;;;;;;;12.48;5.95;;;;;;;1.31;77.91;100309.28;5038588;28;20091;-47
2023/12/14 02:38:33;;;;;;;7.93;4.60;;;;;;;1.30;78.88;100310.06;5039893;28;20048;-43
2023/12/14 02:41:00;;;;;;;8.75;5.60;;;;;;;1.28;78.92;100308.34;5040739;28;20135;-44
2023/12/14 02:43:27;;;;;;;11.07;5.47;;;;;;;1.27;78.60;100306.59;5040823;28;20072;-43
2023/12/14 02:45:55;;;;;;;14.13;6.18;;;;;;;1.27;77.78;100296.41;5038116;28;20049;-44
2023/12/14 02:48:21;;;;;;;9.25;5.38;;;;;;;1.28;78.94;100303.22;5036982;28;20076;-46
2023/12/14 02:50:48;;;;;;;10.48;5.72;;;;;;;1.30;77.96;100299.84;5040374;28;20049;-43
2023/12/14 02:53:15;;;;;;;8.68;5.40;;;;;;;1.31;79.29;100296.53;5043698;28;20044;-46
2023/12/14 02:55:43;;;;;;;8.60;5.05;;;;;;;1.33;79.04;100300.00;5045653;28;20044;-42
2023/12/14 02:58:10;;;;;;;9.63;6.28;;;;;;;1.36;79.14;100305.22;5036899;28;20106;-43
2023/12/14 03:00:37;;;;;;;10.82;4.68;;;;;;;1.38;79.36;100313.78;5044114;28;20536;-49
2023/12/14 03:03:04;;;;;;;9.55;6.68;;;;;;;1.40;78.56;100312.19;5046130;28;20049;-43
2023/12/14 03:05:30;;;;;;;9.10;5.18;;;;;;;1.42;78.02;100310.56;5037868;28;20041;-45
2023/12/14 03:07:57;;;;;;;9.50;5.95;;;;;;;1.43;78.46;100307.19;5037780;28;20140;-50
2023/12/14 03:10:24;;;;;;;16.50;5.97;;;;;;;1.43;79.55;100309.75;5038078;28;20483;-44
2023/12/14 03:12:51;;;;;;;11.57;6.43;;;;;;;1.46;78.54;100314.97;5034786;28;20048;-49
2023/12/14 03:15:18;;;;;;;9.07;5.63;;;;;;;1.46;79.45;100314.97;5040470;28;20068;-45
2023/12/14 03:17:45;;;;;;;12.40;6.20;;;;;;;1.50;79.10;100328.72;5041635;28;20069;-48
2023/12/14 03:20:14;;;;;;;16.13;7.10;;;;;;;1.52;78.60;100327.97;5041169;28;20068;-47
2023/12/14 03:22:41;;;;;;;13.55;5.90;;;;;;;1.56;78.68;100338.31;5046563;28;20049;-47
2023/12/14 03:25:09;;;;;;;10.30;5.78;;;;;;;1.59;78.80;100333.31;5040707;28;20115;-47
2023/12/14 03:27:36;;;;;;;15.27;5.60;;;;;;;1.61;79.55;100327.47;5032516;28;20045;-46
2023/12/14 03:30:07;;;;;;;12.32;6.38;;;;;;;1.62;78.32;100325.78;5038854;28;20056;-46
2023/12/14 03:32:34;;;;;;;12.80;6.72;;;;;;;1.64;78.54;100332.69;5039388;28;20050;-46
2023/12/14 03:35:02;;;;;;;11.88;5.68;;;;;;;1.64;78.73;100322.47;5040241;28;20072;-45
2023/12/14 03:37:29;;;;;;;10.70;4.88;;;;;;;1.65;78.45;100325.88;5023040;28;20071;-51
2023/12/14 03:39:56;;;;;;;8.75;5.78;;;;;;;1.67;77.88;100327.69;5037533;28;20461;-49
2023/12/14 03:42:23;;;;;;;9.40;4.15;;;;;;;1.68;78.69;100328.56;5035731;28;20065;-49
2023/12/14 03:44:49;;;;;;;9.90;5.28;;;;;;;1.70;77.97;100326.94;5037550;28;20045;-42
2023/12/14 03:47:16;;;;;;;11.30;5.68;;;;;;;1.70;78.04;100331.16;5042348;28;20485;-49
2023/12/14 03:49:43;;;;;;;8.20;4.63;;;;;;;1.69;79.31;100330.28;5044114;28;20053;-51
2023/12/14 03:52:10;;;;;;;12.50;4.70;;;;;;;1.70;79.65;100323.50;5037362;28;20045;-48
2023/12/14 03:54:36;;;;;;;12.75;5.35;;;;;;;1.70;78.65;100321.84;5041599;28;20050;-51
2023/12/14 03:57:03;;;;;;;9.23;3.67;;;;;;;1.72;78.29;100320.19;5037321;28;20521;-46
2023/12/14 03:59:32;;;;;;;13.32;5.97;;;;;;;1.70;79.38;100323.50;5046136;28;20056;-42
2023/12/14 04:01:58;;;;;;;5.00;2.75;;;;;;;1.72;79.57;100324.44;5036115;28;20045;-48
2023/12/14 04:04:25;;;;;;;8.70;5.07;;;;;;;1.72;78.94;100334.66;5034178;28;20049;-50
2023/12/14 04:06:52;;;;;;;11.60;3.25;;;;;;;1.72;78.41;100335.50;5040029;28;20442;-45
2023/12/14 04:09:19;;;;;;;5.55;2.88;;;;;;;1.71;79.93;100335.47;5038806;28;20532;-48
2023/12/14 04:11:45;;;;;;;7.25;3.03;;;;;;;1.72;79.79;100340.63;5042549;28;20602;-49
2023/12/14 04:14:12;;;;;;;6.30;4.00;;;;;;;1.73;79.33;100344.94;5033366;28;20530;-50
2023/12/14 04:16:39;;;;;;;13.48;5.43;;;;;;;1.74;79.13;100343.25;5041032;28;20497;-53
2023/12/14 04:19:09;;;;;;;9.27;4.90;;;;;;;1.75;78.98;100350.06;5042909;28;20045;-50
2023/12/14 04:21:37;;;;;;;7.57;4.57;;;;;;;1.75;78.58;100356.06;5040788;28;20037;-52
2023/12/14 04:24:04;;;;;;;14.38;6.03;;;;;;;1.76;79.82;100356.94;5040814;28;20518;-48
2023/12/14 04:26:31;;;;;;;8.68;5.15;;;;;;;1.77;78.18;100358.69;5045207;28;20044;-53
2023/12/14 04:28:57;;;;;;;10.27;5.32;;;;;;;1.77;79.12;100359.56;5041446;28;20055;-53
2023/12/14 04:31:24;;;;;;;8.82;5.10;;;;;;;1.77;79.16;100346.81;5038394;28;20483;-50
2023/12/14 04:33:51;;;;;;;9.75;6.05;;;;;;;1.77;78.37;100351.91;5040877;28;20075;-48
2023/12/14 04:36:18;;;;;;;7.15;4.47;;;;;;;1.77;78.30;100354.47;5046396;28;20049;-42
2023/12/14 04:38:46;;;;;;;6.43;2.97;;;;;;;1.78;79.42;100351.09;5045975;28;20403;-51
2023/12/14 04:41:13;;;;;;;4.65;2.80;;;;;;;1.79;79.79;100357.94;5047352;28;20469;-48
2023/12/14 04:43:40;;;;;;;11.30;5.57;;;;;;;1.80;78.70;100349.44;5043456;28;20049;-46
2023/12/14 04:46:07;;;;;;;8.38;3.97;;;;;;;1.80;79.67;100344.34;5048347;28;20052;-47
2023/12/14 04:48:33;;;;;;;11.48;3.80;;;;;;;1.83;78.82;100338.50;5044726;28;20048;-60
2023/12/14 04:51:00;;;;;;;8.45;4.65;;;;;;;1.83;78.65;100333.38;5043107;28;20048;-56
2023/12/14 04:53:27;;;;;;;7.40;4.50;;;;;;;1.85;79.58;100335.97;5043978;28;20053;-48
2023/12/14 04:55:54;;;;;;;8.95;5.43;;;;;;;1.86;79.76;100337.75;5041165;28;20041;-44
2023/12/14 04:58:20;;;;;;;13.35;5.03;;;;;;;1.87;79.55;100339.47;5039612;28;20056;-50
2023/12/14 05:00:47;;;;;;;9.55;6.22;;;;;;;1.91;78.48;100341.31;5037988;28;20044;-47
2023/12/14 05:03:14;;;;;;;13.45;3.80;;;;;;;1.90;78.37;100340.44;5039367;28;20048;-44
2023/12/14 05:05:41;;;;;;;8.40;5.05;;;;;;;1.91;78.59;100333.66;5040531;28;20045;-46
2023/12/14 05:08:07;;;;;;;10.48;5.47;;;;;;;1.93;78.43;100339.72;5039724;28;20129;-47
2023/12/14 05:10:34;;;;;;;14.00;6.45;;;;;;;1.95;79.77;100350.84;5044393;28;20102;-42
2023/12/14 05:13:03;;;;;;;14.68;4.85;;;;;;;1.97;79.74;100366.22;5039337;28;20096;-52
2023/12/14 05:15:30;;;;;;;8.07;5.53;;;;;;;1.98;78.95;100361.19;5044777;28;20099;-55
2023/12/14 05:17:57;;;;;;;13.27;5.97;;;;;;;2.00;79.77;100363.78;5038453;28;20414;-49
2023/12/14 05:20:24;;;;;;;11.45;4.45;;;;;;;2.03;79.01;100367.31;5039805;28;20414;-46
2023/12/14 05:22:51;;;;;;;11.60;5.47;;;;;;;2.05;79.79;100363.16;5035155;28;20060;-42
2023/12/14 05:25:18;;;;;;;13.40;7.07;;;;;;;2.10;79.06;100365.00;5046606;28;20060;-42
2023/12/14 05:27:45;;;;;;;12.40;6.50;;;;;;;2.11;78.49;100364.19;5041471;28;20049;-49
2023/12/14 05:30:11;;;;;;;11.07;5.88;;;;;;;2.13;79.75;100362.56;5041654;28;20045;-44
2023/12/14 05:32:38;;;;;;;8.77;5.55;;;;;;;2.15;79.39;100369.47;5045489;28;20565;-46
2023/12/14 05:35:06;;;;;;;10.65;5.55;;;;;;;2.15;78.81;100366.91;5040939;28;20578;-48
2023/12/14 05:37:33;;;;;;;11.80;5.05;;;;;;;2.18;78.41;100373.81;5042976;28;20060;-44
2023/12/14 05:39:59;;;;;;;7.18;4.25;;;;;;;2.20;78.61;100379.00;5042409;28;20061;-54
2023/12/14 05:42:26;;;;;;;13.95;3.90;;;;;;;2.22;78.77;100368.00;5037166;28;20744;-50
2023/12/14 05:44:53;;;;;;;12.18;5.50;;;;;;;2.23;79.67;100369.75;5042412;28;20114;-51
2023/12/14 05:47:20;;;;;;;10.60;4.78;;;;;;;2.24;80.01;100371.50;5045693;28;20045;-45
2023/12/14 05:49:46;;;;;;;8.30;4.28;;;;;;;2.25;79.79;100380.03;5044597;28;20396;-44
2023/12/14 05:52:13;;;;;;;11.43;5.70;;;;;;;2.26;79.87;100386.91;5043433;28;20156;-45
2023/12/14 05:54:40;;;;;;;8.23;4.75;;;;;;;2.25;79.16;100393.69;5042785;28;20831;-44
2023/12/14 05:57:07;;;;;;;8.38;2.72;;;;;;;2.25;78.77;100393.69;5046739;28;20436;-51
2023/12/14 05:59:33;;;;;;;7.70;2.53;;;;;;;2.25;79.37;100398.81;5047533;28;20045;-47
2023/12/14 06:02:00;;;;;;;6.00;3.88;;;;;;;2.29;79.13;100394.66;5043799;28;20044;-45
2023/12/14 06:04:27;;;;;;;14.73;5.18;;;;;;;2.30;80.12;100392.16;5033816;28;20873;-46
2023/12/14 06:06:54;;;;;;;9.00;5.38;;;;;;;2.30;79.81;100392.16;5047173;28;20061;-43
2023/12/14 06:09:24;;;;;;;9.65;5.15;;;;;;;2.31;78.88;100383.69;5043514;28;20498;-47
2023/12/14 06:11:51;;;;;;;9.55;4.65;;;;;;;2.30;79.46;100376.81;5039660;28;20514;-49
2023/12/14 06:14:18;;;;;;;9.93;4.85;;;;;;;2.31;78.90;100368.38;5045754;28;20123;-50
2023/12/14 06:16:45;;;;;;;7.80;5.20;;;;;;;2.30;80.09;100374.25;5046711;28;20059;-49
2023/12/14 06:19:12;;;;;;;10.85;4.75;;;;;;;2.31;79.42;100378.59;5030043;28;20136;-46
2023/12/14 06:21:40;;;;;;;6.28;2.35;;;;;;;2.33;80.36;100375.22;5040388;28;20556;-54
2023/12/14 06:24:07;;;;;;;7.70;4.35;;;;;;;2.37;80.24;100379.63;5021402;28;20049;-51
2023/12/14 06:26:34;;;;;;;9.27;5.20;;;;;;;2.40;80.29;100361.84;5043710;28;20051;-53
2023/12/14 06:29:00;;;;;;;15.35;5.63;;;;;;;2.41;79.62;100373.78;5045656;28;20057;-48
2023/12/14 06:31:27;;;;;;;4.80;3.55;;;;;;;2.43;80.10;100372.16;5042490;28;20037;-45
2023/12/14 06:33:54;;;;;;;10.30;5.57;;;;;;;2.46;79.21;100387.59;5050727;28;20051;-49
2023/12/14 06:36:29;;;;;;;14.38;6.97;;;;;;;2.49;80.01;100382.59;5045233;28;20144;-48
2023/12/14 06:38:57;;;;;;;17.98;8.27;;;;;;;2.54;79.95;100395.56;5035320;28;20049;-50
2023/12/14 06:41:25;;;;;;;8.15;3.60;;;;;;;2.55;79.34;100402.41;5040040;28;20627;-50
2023/12/14 06:43:52;;;;;;;14.43;5.78;;;;;;;2.57;79.51;100403.34;5046605;28;20048;-50
2023/12/14 06:46:19;;;;;;;27.73;8.50;;;;;;;2.60;79.96;100400.03;5043741;28;20102;-46
2023/12/14 06:48:47;;;;;;;8.52;2.72;;;;;;;2.62;79.50;100418.84;5044352;28;20445;-47
2023/12/14 06:51:13;;;;;;;6.10;3.95;;;;;;;2.64;79.50;100396.75;5032440;28;20064;-48
2023/12/14 06:53:41;;;;;;;8.18;4.82;;;;;;;2.66;79.34;100407.91;5049469;28;20094;-49
2023/12/14 06:56:10;;;;;;;7.45;3.47;;;;;;;2.67;79.29;100404.53;5017515;28;20569;-50
2023/12/14 06:58:42;;;;;;;6.68;3.55;;;;;;;2.67;79.66;100410.50;5024412;28;20045;-45
2023/12/14 07:01:14;;;;;;;7.40;3.75;;;;;;;2.69;79.44;100410.56;5028819;28;20141;-48
2023/12/14 07:03:42;;;;;;;7.20;3.55;;;;;;;2.70;80.07;100417.41;5046087;28;20041;-43
2023/12/14 07:06:15;;;;;;;13.63;4.07;;;;;;;2.72;79.50;100418.34;5045648;28;20041;-50
2023/12/14 07:08:42;;;;;;;10.80;3.80;;;;;;;2.74;80.53;100424.41;5029435;28;20045;-48
2023/12/14 07:11:10;;;;;;;6.15;3.45;;;;;;;2.77;79.73;100424.50;5042676;28;20052;-48
2023/12/14 07:13:38;;;;;;;5.95;4.20;;;;;;;2.79;79.71;100420.31;5044677;28;20045;-46
2023/12/14 07:16:07;;;;;;;4.18;3.03;;;;;;;2.81;80.43;100421.22;5045624;28;20053;-48
2023/12/14 07:18:36;;;;;;;3.70;3.40;;;;;;;2.82;79.70;100417.00;5026427;28;20049;-49
2023/12/14 07:21:04;;;;;;;6.22;2.17;;;;;;;2.82;79.83;100417.88;5042988;28;20500;-44
2023/12/14 07:23:31;;;;;;;8.32;4.38;;;;;;;2.84;79.48;100412.81;5026664;28;20055;-48
2023/12/14 07:25:57;;;;;;;5.50;3.05;;;;;;;2.86;80.29;100423.06;5046061;28;20056;-48
2023/12/14 07:28:28;;;;;;;5.40;3.70;;;;;;;2.88;79.74;100411.22;5046687;28;20064;-46
2023/12/14 07:30:55;;;;;;;4.40;3.50;;;;;;;2.89;80.45;100412.94;5047142;28;20037;-50
2023/12/14 07:33:22;;;;;;;5.90;5.28;;;;;;;2.92;79.62;100410.50;5030900;28;20072;-52
2023/12/14 07:35:49;;;;;;;4.50;3.78;;;;;;;2.92;80.23;100408.81;5044215;28;20044;-43
2023/12/14 07:38:15;;;;;;;4.45;2.55;;;;;;;2.94;80.25;100414.84;5040432;28;20052;-47
2023/12/14 07:40:42;;;;;;;4.72;3.45;;;;;;;2.97;79.94;100416.63;5042766;28;20037;-50
2023/12/14 07:43:09;;;;;;;2.42;2.30;;;;;;;2.97;80.35;100411.53;5044040;28;20052;-53
2023/12/14 07:45:36;;;;;;;4.05;3.60;;;;;;;3.01;79.83;100415.06;5047098;28;20044;-48
2023/12/14 07:48:03;;;;;;;5.55;2.92;;;;;;;3.03;79.58;100421.97;5044053;28;20045;-52
2023/12/14 07:50:30;;;;;;;6.75;2.97;;;;;;;3.06;80.37;100427.22;5039746;28;20095;-46
2023/12/14 07:52:57;;;;;;;4.95;2.90;;;;;;;3.11;79.61;100423.94;5048127;28;20052;-47
2023/12/14 07:55:24;;;;;;;9.68;4.95;;;;;;;3.14;80.39;100419.78;5042992;28;20048;-51
2023/12/14 07:57:51;;;;;;;2.63;1.33;;;;;;;3.19;79.60;100417.38;5018913;28;20449;-44
2023/12/14 08:00:18;;;;;;;3.10;2.30;;;;;;;3.22;79.45;100414.94;5043927;28;20056;-43
2023/12/14 08:02:44;;;;;;;4.47;2.10;;;;;;;3.25;79.92;100422.72;5041194;28;20529;-44
2023/12/14 08:05:11;;;;;;;7.22;2.97;;;;;;;3.28;79.57;100422.78;5047299;28;20052;-48
2023/12/14 08:07:38;;;;;;;5.78;2.40;;;;;;;3.30;79.66;100416.03;5046527;28;20049;-44
2023/12/14 08:10:05;;;;;;;5.30;2.78;;;;;;;3.32;79.61;100419.50;5042223;28;20053;-45
2023/12/14 08:12:32;;;;;;;5.93;3.95;;;;;;;3.36;79.76;100420.50;5040172;28;20056;-43
2023/12/14 08:14:59;;;;;;;3.10;2.40;;;;;;;3.39;79.71;100414.59;5047279;28;20107;-51
2023/12/14 08:17:27;;;;;;;3.67;2.70;;;;;;;3.42;80.07;100422.38;5048818;28;20414;-46
2023/12/14 08:19:54;;;;;;;6.25;2.90;;;;;;;3.44;79.63;100413.03;5036607;28;20142;-53
2023/12/14 08:22:21;;;;;;;4.22;3.25;;;;;;;3.47;80.07;100415.72;5026714;28;20045;-48
2023/12/14 08:24:49;;;;;;;4.53;3.20;;;;;;;3.49;79.81;100411.53;5043118;28;20095;-43
2023/12/14 08:27:15;;;;;;;3.33;2.95;;;;;;;3.52;79.63;100421.88;5046343;28;20057;-46
2023/12/14 08:29:44;;;;;;;4.82;1.33;;;;;;;3.54;79.62;100425.34;5044453;28;21456;-46
2023/12/14 08:32:11;;;;;;;5.10;1.05;;;;;;;3.55;80.30;100427.06;5045389;28;20613;-52
2023/12/14 08:34:38;;;;;;;4.63;3.05;;;;;;;3.57;79.87;100430.56;5044012;28;20037;-47
2023/12/14 08:37:04;;;;;;;6.32;3.40;;;;;;;3.59;79.80;100426.34;5045733;28;20049;-52
2023/12/14 08:39:31;;;;;;;5.68;3.28;;;;;;;3.62;80.03;100432.41;5043463;28;20049;-49
2023/12/14 08:41:58;;;;;;;6.60;3.10;;;;;;;3.64;80.17;100438.47;5042263;28;20052;-50
2023/12/14 08:44:24;;;;;;;3.97;2.88;;;;;;;3.65;80.32;100427.38;5042949;28;20482;-47
2023/12/14 08:46:51;;;;;;;1.77;1.67;;;;;;;3.65;79.97;100432.50;5041610;28;20754;-44
2023/12/14 08:49:18;;;;;;;4.28;3.30;;;;;;;3.64;80.72;100433.34;5048859;28;20416;-46
2023/12/14 08:51:45;;;;;;;5.38;2.72;;;;;;;3.67;80.64;100425.72;5050798;28;20058;-42
2023/12/14 08:54:12;;;;;;;3.70;2.85;;;;;;;3.69;81.09;100427.50;5050328;28;20111;-46
2023/12/14 08:56:39;;;;;;;6.70;3.40;;;;;;;3.72;80.89;100430.16;5052492;28;20049;-45
2023/12/14 08:59:05;;;;;;;2.78;2.30;;;;;;;3.76;79.96;100426.03;5050233;28;20086;-46
2023/12/14 09:01:32;;;;;;;4.75;3.10;;;;;;;3.79;80.76;100426.13;5043991;28;20124;-48
2023/12/14 09:03:59;;;;;;;4.63;3.15;;;;;;;3.83;80.80;100427.97;5044908;28;20053;-46
2023/12/14 09:06:26;;;;;;;3.28;1.58;;;;;;;3.88;80.47;100434.94;5047873;28;20360;-44
2023/12/14 09:08:53;;;;;;;4.57;3.83;;;;;;;3.90;80.84;100439.28;5043241;28;20045;-49
2023/12/14 09:11:19;;;;;;;5.78;2.88;;;;;;;3.93;81.00;100435.94;5055521;28;20045;-47
2023/12/14 09:13:46;;;;;;;6.50;3.28;;;;;;;3.98;81.00;100439.50;5048110;28;20417;-51
2023/12/14 09:16:13;;;;;;;4.57;1.25;;;;;;;4.00;80.97;100445.56;5042680;28;20494;-44
2023/12/14 09:18:39;;;;;;;5.65;2.70;;;;;;;4.03;81.70;100439.63;5045653;28;20057;-52
2023/12/14 09:21:06;;;;;;;5.05;2.55;;;;;;;4.05;81.26;100443.97;5045636;28;20045;-49
2023/12/14 09:23:33;;;;;;;6.93;2.90;;;;;;;4.08;81.53;100438.97;5046240;28;20040;-49
2023/12/14 09:25:59;;;;;;;3.25;2.95;;;;;;;4.10;81.27;100445.00;5047577;28;20049;-47
2023/12/14 09:28:26;;;;;;;5.90;3.92;;;;;;;4.17;81.24;100446.06;5040628;28;20049;-46
2023/12/14 09:30:53;;;;;;;3.58;2.58;;;;;;;4.23;80.53;100447.94;5048507;28;20041;-48
2023/12/14 09:33:20;;;;;;;7.03;3.25;;;;;;;4.29;80.88;100437.00;5044985;28;20046;-43
2023/12/14 09:35:47;;;;;;;5.35;3.17;;;;;;;4.34;80.93;100441.44;5050499;28;20041;-46
2023/12/14 09:38:17;;;;;;;6.65;2.90;;;;;;;4.43;81.50;100445.09;5046284;28;20050;-47
2023/12/14 09:40:44;;;;;;;3.78;3.30;;;;;;;4.46;81.69;100434.91;5039821;28;20064;-44
2023/12/14 09:43:13;;;;;;;5.25;3.90;;;;;;;4.55;81.63;100442.88;5046271;28;20506;-47
2023/12/14 09:45:44;;;;;;;3.72;3.25;;;;;;;4.62;82.04;100452.47;5050375;28;20049;-47
2023/12/14 09:48:12;;;;;;;4.88;2.83;;;;;;;4.69;81.98;100442.41;5057808;28;20068;-42
2023/12/14 09:50:40;;;;;;;3.85;2.72;;;;;;;4.73;81.59;100449.34;5047667;28;20080;-51
2023/12/14 09:53:08;;;;;;;5.53;2.30;;;;;;;4.76;81.62;100449.41;5049588;28;20056;-48
2023/12/14 09:55:35;;;;;;;7.15;3.22;;;;;;;4.80;81.83;100456.38;5048026;28;20046;-52
2023/12/14 09:58:02;;;;;;;4.78;3.80;;;;;;;4.83;81.44;100453.03;5044851;28;21480;-51
2023/12/14 10:00:35;;;;;;;4.10;3.05;;;;;;;4.85;81.45;100459.06;5052837;28;20068;-53
2023/12/14 10:03:20;;;;;;;3.30;2.85;;;;;;;4.86;81.13;100451.41;5025589;28;20549;-45
2023/12/14 10:05:48;;;;;;;6.25;3.58;;;;;;;4.94;81.04;100458.44;5043426;28;20787;-46
2023/12/14 10:08:16;;;;;;;3.42;3.13;;;;;;;5.01;81.29;100460.38;5012674;28;20131;-48
2023/12/14 10:10:44;;;;;;;5.78;2.90;;;;;;;5.21;80.95;100472.84;5046034;28;20048;-53
2023/12/14 10:13:12;;;;;;;6.93;3.88;;;;;;;5.49;81.10;100473.56;5047509;28;20211;-48
2023/12/14 10:15:45;;;;;;;6.43;2.47;;;;;;;5.62;81.11;100479.88;5044755;28;20132;-49
2023/12/14 10:18:13;;;;;;;5.80;3.30;;;;;;;5.71;81.55;100474.94;5046584;28;20053;-51
2023/12/14 10:20:40;;;;;;;7.28;4.20;;;;;;;5.90;80.94;100476.25;5045793;28;20055;-45
2023/12/14 10:23:07;;;;;;;5.28;4.18;;;;;;;6.65;80.80;100477.91;5040472;28;20053;-48
2023/12/14 10:25:35;;;;;;;4.50;3.53;;;;;;;7.42;79.36;100487.03;5045398;28;20072;-49
2023/12/14 10:28:03;;;;;;;5.55;3.67;;;;;;;8.13;78.93;100481.25;5021046;28;20099;-46
2023/12/14 10:30:30;;;;;;;6.55;4.85;;;;;;;8.62;77.12;100488.84;5045874;28;20056;-47
2023/12/14 10:33:01;;;;;;;10.10;4.80;;;;;;;8.78;76.57;100486.44;5042280;28;20059;-54
2023/12/14 10:35:27;;;;;;;5.80;3.55;;;;;;;8.57;75.78;100487.91;5046142;28;20383;-50
2023/12/14 10:37:55;;;;;;;7.00;3.97;;;;;;;8.32;75.40;100490.13;5045276;28;20045;-46
2023/12/14 10:40:24;;;;;;;7.70;4.45;;;;;;;8.01;75.78;100494.84;5040817;28;20053;-47
2023/12/14 10:42:53;;;;;;;7.53;3.75;;;;;;;7.75;76.67;100490.16;5045598;28;20041;-46
2023/12/14 10:45:25;;;;;;;3.58;3.20;;;;;;;7.56;76.82;100500.16;5039920;28;20056;-41
2023/12/14 10:47:53;;;;;;;12.50;5.55;;;;;;;7.42;77.88;100498.22;5041618;28;20044;-44
2023/12/14 10:50:21;;;;;;;17.55;6.22;;;;;;;7.31;78.11;100503.19;5042626;28;20127;-54
2023/12/14 10:52:48;;;;;;;14.80;6.82;;;;;;;7.19;77.15;100495.22;5045392;28;20072;-44
2023/12/14 10:55:28;;;;;;;6.82;3.53;;;;;;;7.10;78.09;100505.38;5045421;28;21415;-43
2023/12/14 10:57:54;;;;;;;20.30;7.38;;;;;;;7.03;78.91;100504.38;5028084;28;20060;-43
2023/12/14 11:00:21;;;;;;;20.38;6.70;;;;;;;6.95;79.16;100511.94;5049284;28;20076;-46
2023/12/14 11:02:48;;;;;;;30.02;8.77;;;;;;;6.91;78.97;100511.03;5043678;28;20037;-44
2023/12/14 11:05:17;;;;;;;12.55;5.70;;;;;;;6.87;78.24;100511.81;5047473;28;20044;-42
2023/12/14 11:10:27;;;;;;;20.23;6.90;;;;;;;6.87;79.98;100514.38;5076759;27;20407;-48
2023/12/14 11:15:34;;;;;;;12.88;3.80;;;;;;;6.84;79.04;100527.19;5048417;28;20428;-52
2023/12/14 11:26:04;;;;;;;11.55;4.80;;;;;;;6.73;79.58;100532.13;5021603;27;20406;-51
2023/12/14 11:28:32;;;;;;;;;;;;;;;6.79;80.46;100534.81;5001735;28;20104;-50
2023/12/14 11:31:01;;;;;;;10.32;4.78;;;;;;;7.05;79.80;100524.16;5006312;28;19921;-49
2023/12/14 11:33:28;;;;;;;11.88;4.53;;;;;;;7.27;80.16;100521.13;5003976;28;20053;-45
2023/12/14 11:35:57;;;;;;;7.40;4.22;;;;;;;7.40;79.49;100517.94;4995818;28;20042;-44
2023/12/14 11:38:24;;;;;;;11.95;4.97;;;;;;;7.47;80.13;100524.09;5010262;28;20054;-44
2023/12/14 11:40:51;;;;;;;13.25;5.25;;;;;;;7.45;79.11;100518.91;5007148;28;20054;-44
2023/12/14 11:43:21;;;;;;;6.28;3.80;;;;;;;7.42;79.47;100512.81;5009599;28;20100;-46
2023/12/14 11:45:49;;;;;;;7.05;4.40;;;;;;;7.40;80.20;100510.19;5009677;28;20049;-42